createdAt,value
2022-10-05T00:01:35.702Z,8.00
2022-10-05T00:04:15.724Z,8.00
2022-10-05T00:06:44.002Z,7.90
2022-10-05T00:09:12.945Z,7.90
2022-10-05T00:11:39.450Z,7.90
2022-10-05T00:14:21.299Z,7.90
2022-10-05T00:16:48.227Z,7.80
2022-10-05T00:19:19.183Z,7.80
2022-10-05T00:21:45.728Z,7.80
2022-10-05T00:24:12.719Z,7.70
2022-10-05T00:26:39.295Z,7.70
2022-10-05T00:29:16.772Z,7.60
2022-10-05T00:31:43.356Z,7.60
2022-10-05T00:34:09.902Z,7.60
2022-10-05T00:36:37.817Z,7.60
2022-10-05T00:39:04.471Z,7.60
2022-10-05T00:41:37.110Z,7.50
2022-10-05T00:44:09.972Z,7.50
2022-10-05T00:46:39.533Z,7.60
2022-10-05T00:49:22.113Z,7.60
2022-10-05T00:51:53.153Z,7.60
2022-10-05T00:54:23.767Z,7.70
2022-10-05T00:57:13.267Z,7.70
2022-10-05T00:59:40.335Z,7.70
2022-10-05T01:02:12.223Z,7.60
2022-10-05T01:04:49.204Z,7.50
2022-10-05T01:07:27.762Z,7.50
2022-10-05T01:09:57.333Z,7.50
2022-10-05T01:12:26.891Z,7.40
2022-10-05T01:14:58.765Z,7.40
2022-10-05T01:17:32.245Z,7.30
2022-10-05T01:19:58.719Z,7.30
2022-10-05T01:22:25.215Z,7.30
2022-10-05T01:24:54.729Z,7.30
2022-10-05T01:27:40.300Z,7.30
2022-10-05T01:30:10.690Z,7.30
2022-10-05T01:32:55.774Z,7.30
2022-10-05T01:35:29.759Z,7.20
2022-10-05T01:38:11.591Z,7.20
2022-10-05T01:40:41.148Z,7.20
2022-10-05T01:43:11.613Z,7.20
2022-10-05T01:46:00.678Z,7.20
2022-10-05T01:48:45.963Z,7.30
2022-10-05T01:51:15.635Z,7.30
2022-10-05T01:53:42.109Z,7.20
2022-10-05T01:56:08.656Z,7.30
2022-10-05T01:58:47.452Z,7.20
2022-10-05T02:01:17.087Z,7.30
2022-10-05T02:03:47.165Z,7.20
2022-10-05T02:06:17.423Z,7.20
2022-10-05T02:08:47.648Z,7.10
2022-10-05T02:11:17.467Z,7.20
2022-10-05T02:13:48.851Z,7.10
2022-10-05T02:16:27.500Z,7.00
2022-10-05T02:19:09.854Z,6.90
2022-10-05T02:21:36.385Z,6.90
2022-10-05T02:24:06.573Z,6.90
2022-10-05T02:26:35.275Z,6.90
2022-10-05T02:29:07.984Z,6.90
2022-10-05T02:31:44.778Z,6.90
2022-10-05T02:34:29.667Z,6.90
2022-10-05T02:36:59.317Z,6.90
2022-10-05T02:39:31.467Z,6.90
2022-10-05T02:42:20.663Z,6.90
2022-10-05T02:44:54.821Z,7.00
2022-10-05T02:47:36.662Z,7.00
2022-10-05T02:50:20.383Z,6.90
2022-10-05T02:52:56.465Z,6.80
2022-10-05T02:55:35.323Z,6.80
2022-10-05T02:58:08.403Z,6.80
2022-10-05T03:00:38.925Z,6.90
2022-10-05T03:03:06.697Z,6.90
2022-10-05T03:05:53.069Z,6.80
2022-10-05T03:08:22.286Z,6.70
2022-10-05T03:10:55.556Z,6.80
2022-10-05T03:13:29.790Z,6.70
2022-10-05T03:15:59.815Z,6.70
2022-10-05T03:18:34.218Z,6.70
2022-10-05T03:21:07.327Z,6.60
2022-10-05T03:23:42.756Z,6.60
2022-10-05T03:26:17.818Z,6.60
2022-10-05T03:28:58.775Z,6.60
2022-10-05T03:31:43.701Z,6.60
2022-10-05T03:34:25.308Z,6.70
2022-10-05T03:36:51.809Z,6.70
2022-10-05T03:39:22.294Z,6.70
2022-10-05T03:42:00.611Z,6.70
2022-10-05T03:44:45.959Z,6.70
2022-10-05T03:47:15.688Z,6.60
2022-10-05T03:49:45.334Z,6.70
2022-10-05T03:52:34.607Z,6.60
2022-10-05T03:55:24.453Z,6.60
2022-10-05T03:57:52.336Z,6.60
2022-10-05T04:00:23.176Z,6.60
2022-10-05T04:02:53.132Z,6.60
2022-10-05T04:05:21.763Z,6.60
2022-10-05T04:07:48.257Z,6.60
2022-10-05T04:10:26.111Z,6.60
2022-10-05T04:12:57.643Z,6.50
2022-10-05T04:15:33.579Z,6.50
2022-10-05T04:18:14.066Z,6.50
2022-10-05T04:20:49.177Z,6.50
2022-10-05T04:23:15.763Z,6.40
2022-10-05T04:25:53.842Z,6.50
2022-10-05T04:28:32.030Z,6.40
2022-10-05T04:31:00.178Z,6.40
2022-10-05T04:33:27.257Z,6.40
2022-10-05T04:36:12.757Z,6.30
2022-10-05T04:38:58.021Z,6.30
2022-10-05T04:41:30.276Z,6.30
2022-10-05T04:43:59.834Z,6.20
2022-10-05T04:46:55.275Z,6.30
2022-10-05T04:49:27.241Z,6.20
2022-10-05T04:52:12.300Z,6.20
2022-10-05T04:54:57.688Z,6.20
2022-10-05T04:57:31.580Z,6.20
2022-10-05T05:00:10.163Z,6.20
2022-10-05T05:02:36.689Z,6.20
2022-10-05T05:05:03.190Z,6.20
2022-10-05T05:07:29.758Z,6.20
2022-10-05T05:10:15.071Z,6.10
2022-10-05T05:12:41.692Z,6.20
2022-10-05T05:15:20.452Z,6.20
2022-10-05T05:17:56.230Z,6.20
2022-10-05T05:20:29.548Z,6.20
2022-10-05T05:23:02.552Z,6.20
2022-10-05T05:25:41.159Z,6.20
2022-10-05T05:28:16.802Z,6.30
2022-10-05T05:30:47.909Z,6.40
2022-10-05T05:33:23.350Z,6.30
2022-10-05T05:35:49.853Z,6.30
2022-10-05T05:38:24.846Z,6.30
2022-10-05T05:41:06.792Z,6.30
2022-10-05T05:43:36.172Z,6.30
2022-10-05T05:46:06.343Z,6.30
2022-10-05T05:48:33.206Z,6.40
2022-10-05T05:51:03.406Z,6.50
2022-10-05T05:53:34.001Z,6.50
2022-10-05T05:56:05.769Z,6.60
2022-10-05T05:58:34.832Z,6.70
2022-10-05T06:01:03.407Z,6.80
2022-10-05T06:03:37.035Z,6.90
2022-10-05T06:06:10.488Z,6.90
2022-10-05T06:08:41.240Z,7.00
2022-10-05T06:11:16.995Z,7.10
2022-10-05T06:13:43.710Z,7.20
2022-10-05T06:16:18.663Z,7.40
2022-10-05T06:18:47.728Z,7.60
2022-10-05T06:21:19.684Z,7.70
2022-10-05T06:23:51.767Z,7.90
2022-10-05T06:26:24.417Z,8.00
2022-10-05T06:28:55.981Z,8.20
2022-10-05T06:31:45.363Z,8.30
2022-10-05T06:34:21.692Z,8.40
2022-10-05T06:36:50.232Z,8.60
2022-10-05T06:39:16.820Z,8.80
2022-10-05T06:41:50.623Z,8.90
2022-10-05T06:44:19.917Z,9.10
2022-10-05T06:46:49.808Z,9.20
2022-10-05T06:49:19.260Z,9.40
2022-10-05T06:51:56.550Z,9.50
2022-10-05T06:54:35.347Z,9.60
2022-10-05T06:57:12.151Z,9.70
2022-10-05T06:59:44.698Z,9.80
2022-10-05T07:02:26.823Z,9.90
2022-10-05T07:05:11.968Z,10.10
2022-10-05T07:07:38.512Z,10.20
2022-10-05T07:10:27.622Z,10.40
2022-10-05T07:13:12.772Z,10.60
2022-10-05T07:16:02.086Z,10.70
2022-10-05T07:18:43.483Z,10.90
2022-10-05T07:21:15.355Z,11.00
2022-10-05T07:23:48.169Z,11.10
2022-10-05T07:26:14.890Z,11.20
2022-10-05T07:28:50.721Z,11.40
2022-10-05T07:31:30.495Z,11.40
2022-10-05T07:34:03.312Z,11.40
2022-10-05T07:36:59.646Z,11.50
2022-10-05T07:39:59.183Z,11.50
2022-10-05T07:42:30.161Z,11.60
2022-10-05T07:45:22.769Z,11.80
2022-10-05T07:47:56.717Z,11.90
2022-10-05T07:50:33.873Z,12.00
2022-10-05T07:53:13.865Z,12.00
2022-10-05T07:55:44.078Z,12.20
2022-10-05T07:58:16.869Z,12.30
2022-10-05T08:00:52.513Z,12.40
2022-10-05T08:03:26.781Z,12.50
2022-10-05T08:05:53.457Z,12.60
2022-10-05T08:08:33.415Z,12.70
2022-10-05T08:11:07.332Z,12.70
2022-10-05T08:13:39.642Z,12.80
2022-10-05T08:16:12.595Z,12.90
2022-10-05T08:18:53.037Z,13.00
2022-10-05T08:21:22.507Z,13.20
2022-10-05T08:23:56.513Z,13.30
2022-10-05T08:26:46.683Z,13.50
2022-10-05T08:29:22.502Z,13.60
2022-10-05T08:31:50.181Z,13.80
2022-10-05T08:34:30.964Z,14.00
2022-10-05T08:36:58.608Z,14.10
2022-10-05T08:39:28.111Z,14.30
2022-10-05T08:42:09.297Z,14.40
2022-10-05T08:44:38.565Z,14.60
2022-10-05T08:47:08.220Z,14.80
2022-10-05T08:49:37.729Z,15.00
2022-10-05T08:52:04.243Z,15.10
2022-10-05T08:54:46.719Z,15.20
2022-10-05T08:57:35.630Z,15.30
2022-10-05T09:00:05.885Z,15.30
2022-10-05T09:02:50.962Z,15.40
2022-10-05T09:05:17.531Z,15.40
2022-10-05T09:07:50.198Z,15.50
2022-10-05T09:10:41.036Z,15.40
2022-10-05T09:13:24.120Z,15.30
2022-10-05T09:16:03.861Z,15.30
2022-10-05T09:18:36.241Z,15.20
2022-10-05T09:21:20.526Z,15.20
2022-10-05T09:23:49.835Z,15.10
2022-10-05T09:26:41.723Z,15.20
2022-10-05T09:29:27.042Z,15.20
2022-10-05T09:32:23.715Z,15.30
2022-10-05T09:35:04.651Z,15.30
2022-10-05T09:37:49.971Z,15.30
2022-10-05T09:40:19.727Z,15.40
2022-10-05T09:42:52.381Z,15.50
2022-10-05T09:45:28.288Z,15.60
2022-10-05T09:48:13.619Z,15.70
2022-10-05T09:50:41.009Z,15.80
2022-10-05T09:53:16.698Z,16.00
2022-10-05T09:55:53.560Z,16.20
2022-10-05T09:58:33.561Z,16.40
2022-10-05T10:01:29.101Z,16.40
2022-10-05T10:04:08.010Z,16.60
2022-10-05T10:06:37.365Z,16.70
2022-10-05T10:09:09.992Z,16.80
2022-10-05T10:11:42.957Z,16.80
2022-10-05T10:14:31.467Z,16.80
2022-10-05T10:17:07.524Z,16.70
2022-10-05T10:19:36.911Z,16.60
2022-10-05T10:22:19.032Z,16.50
2022-10-05T10:25:03.916Z,16.50
2022-10-05T10:27:32.056Z,16.40
2022-10-05T10:30:36.484Z,16.30
2022-10-05T10:33:22.089Z,16.20
2022-10-05T10:36:03.082Z,16.10
2022-10-05T10:41:26.332Z,16.10
2022-10-05T10:44:11.663Z,16.00
2022-10-05T10:47:07.532Z,16.00
2022-10-05T10:49:52.741Z,16.10
2022-10-05T10:52:38.388Z,16.00
2022-10-05T10:55:20.656Z,16.00
2022-10-05T10:57:47.213Z,16.10
2022-10-05T11:00:20.166Z,16.10
2022-10-05T11:02:56.768Z,16.20
2022-10-05T11:05:23.775Z,16.20
2022-10-05T11:07:53.417Z,16.30
2022-10-05T11:10:26.212Z,16.40
2022-10-05T11:13:06.428Z,16.50
2022-10-05T11:15:49.141Z,16.50
2022-10-05T11:18:27.975Z,16.60
2022-10-05T11:20:57.444Z,16.60
2022-10-05T11:23:42.902Z,16.70
2022-10-05T11:26:18.624Z,16.70
2022-10-05T11:28:54.457Z,16.70
2022-10-05T11:31:56.618Z,16.70
2022-10-05T11:34:33.896Z,16.70
2022-10-05T11:37:19.554Z,16.60
2022-10-05T11:40:06.235Z,16.60
2022-10-05T11:42:38.950Z,16.60
2022-10-05T11:45:08.225Z,16.60
2022-10-05T11:47:37.352Z,16.50
2022-10-05T11:50:06.882Z,16.50
2022-10-05T11:52:33.377Z,16.50
2022-10-05T11:55:15.431Z,16.40
2022-10-05T11:57:48.685Z,16.50
2022-10-05T12:00:19.694Z,16.50
2022-10-05T12:02:58.447Z,16.50
2022-10-05T12:05:25.082Z,16.50
2022-10-05T12:08:10.304Z,16.50
2022-10-05T12:10:43.070Z,16.50
2022-10-05T12:13:19.283Z,16.50
2022-10-05T12:15:58.880Z,16.70
2022-10-05T12:18:31.259Z,16.70
2022-10-05T12:21:16.721Z,16.70
2022-10-05T12:23:55.237Z,16.70
2022-10-05T12:26:21.864Z,16.80
2022-10-05T12:28:55.496Z,16.90
2022-10-05T12:31:25.691Z,16.80
2022-10-05T12:34:05.160Z,16.80
2022-10-05T12:36:52.424Z,16.90
2022-10-05T12:39:21.180Z,17.10
2022-10-05T12:42:10.869Z,17.20
2022-10-05T12:45:07.076Z,17.20
2022-10-05T12:47:43.100Z,17.20
2022-10-05T12:50:18.572Z,17.10
2022-10-05T12:52:49.768Z,17.10
2022-10-05T12:55:30.955Z,17.10
2022-10-05T12:58:00.366Z,17.10
2022-10-05T13:00:29.982Z,17.00
2022-10-05T13:03:02.231Z,17.00
2022-10-05T13:05:36.215Z,16.90
2022-10-05T13:08:08.086Z,17.00
2022-10-05T13:10:40.979Z,17.00
2022-10-05T13:13:07.463Z,17.00
2022-10-05T13:15:39.868Z,16.90
2022-10-05T13:18:12.671Z,17.00
2022-10-05T13:20:44.305Z,17.00
2022-10-05T13:23:31.332Z,17.00
2022-10-05T13:26:03.125Z,17.00
2022-10-05T13:28:44.413Z,17.00
2022-10-05T13:31:23.783Z,16.90
2022-10-05T13:34:07.475Z,17.00
2022-10-05T13:36:42.178Z,17.00
2022-10-05T13:39:08.688Z,17.10
2022-10-05T13:41:44.764Z,17.20
2022-10-05T13:44:20.972Z,17.20
2022-10-05T13:46:59.803Z,17.30
2022-10-05T13:49:38.698Z,17.30
2022-10-05T13:52:11.803Z,17.40
2022-10-05T13:54:47.487Z,17.50
2022-10-05T13:57:27.516Z,17.50
2022-10-05T13:59:57.200Z,17.50
2022-10-05T14:02:31.434Z,17.50
2022-10-05T14:05:02.570Z,17.50
2022-10-05T14:07:34.150Z,17.40
2022-10-05T14:10:02.082Z,17.50
2022-10-05T14:12:28.780Z,17.50
2022-10-05T14:14:58.384Z,17.50
2022-10-05T14:17:33.000Z,17.50
2022-10-05T14:20:00.939Z,17.50
2022-10-05T14:22:27.725Z,17.50
2022-10-05T14:25:13.678Z,17.40
2022-10-05T14:27:51.516Z,17.40
2022-10-05T14:30:20.142Z,17.30
2022-10-05T14:32:59.121Z,17.30
2022-10-05T14:35:44.353Z,17.40
2022-10-05T14:38:21.882Z,17.30
2022-10-05T14:41:07.284Z,17.30
2022-10-05T14:43:34.330Z,17.30
2022-10-05T14:46:16.452Z,17.30
2022-10-05T14:48:44.469Z,17.20
2022-10-05T14:51:12.807Z,17.20
2022-10-05T14:53:40.578Z,17.20
2022-10-05T14:56:18.626Z,17.10
2022-10-05T14:58:55.687Z,17.20
2022-10-05T15:01:32.432Z,17.10
2022-10-05T15:04:02.185Z,17.10
2022-10-05T15:06:39.977Z,17.10
2022-10-05T15:09:17.574Z,16.90
2022-10-05T15:11:44.431Z,16.80
2022-10-05T15:14:15.042Z,16.60
2022-10-05T15:16:42.108Z,16.50
2022-10-05T15:19:17.568Z,16.50
2022-10-05T15:21:56.881Z,16.40
2022-10-05T15:24:26.324Z,16.40
2022-10-05T15:26:57.875Z,16.30
2022-10-05T15:29:35.119Z,16.40
2022-10-05T15:32:14.619Z,16.40
2022-10-05T15:34:49.021Z,16.30
2022-10-05T15:37:16.792Z,16.20
2022-10-05T15:39:52.409Z,16.20
2022-10-05T15:42:32.505Z,16.10
2022-10-05T15:45:08.998Z,16.10
2022-10-05T15:47:44.612Z,16.00
2022-10-05T15:50:22.252Z,15.90
2022-10-05T15:52:51.889Z,15.80
2022-10-05T15:55:37.348Z,15.70
2022-10-05T15:58:17.520Z,15.60
2022-10-05T16:00:48.476Z,15.60
2022-10-05T16:03:40.094Z,15.50
2022-10-05T16:06:48.396Z,15.40
2022-10-05T16:09:14.932Z,15.40
2022-10-05T16:12:01.100Z,15.30
2022-10-05T16:14:36.989Z,15.20
2022-10-05T16:17:20.747Z,15.10
2022-10-05T16:20:06.200Z,15.10
2022-10-05T16:22:43.447Z,15.00
2022-10-05T16:25:49.156Z,14.90
2022-10-05T16:28:29.649Z,14.70
2022-10-05T16:30:56.482Z,14.60
2022-10-05T16:33:52.961Z,14.50
2022-10-05T16:36:32.242Z,14.30
2022-10-05T16:39:04.821Z,14.20
2022-10-05T16:41:53.526Z,14.10
2022-10-05T16:44:29.559Z,14.10
2022-10-05T16:47:14.609Z,14.00
2022-10-05T16:49:45.528Z,14.00
2022-10-05T16:52:16.022Z,13.90
2022-10-05T16:54:48.064Z,13.80
2022-10-05T16:57:14.812Z,13.80
2022-10-05T17:00:03.735Z,13.70
2022-10-05T17:02:42.551Z,13.60
2022-10-05T17:05:18.304Z,13.50
2022-10-05T17:07:57.026Z,13.40
2022-10-05T17:10:37.236Z,13.30
2022-10-05T17:13:22.640Z,13.30
2022-10-05T17:15:55.317Z,13.20
2022-10-05T17:18:29.203Z,13.20
2022-10-05T17:21:02.760Z,13.20
2022-10-05T17:23:32.206Z,13.10
2022-10-05T17:26:03.930Z,13.10
2022-10-05T17:28:41.777Z,13.00
2022-10-05T17:31:13.819Z,13.00
2022-10-05T17:33:58.783Z,13.00
2022-10-05T17:36:38.382Z,13.00
2022-10-05T17:39:18.135Z,13.00
2022-10-05T17:41:45.203Z,13.00
2022-10-05T17:44:19.454Z,13.00
2022-10-05T17:46:47.454Z,13.00
2022-10-05T17:49:19.952Z,12.90
2022-10-05T17:52:05.175Z,12.90
2022-10-05T17:55:10.405Z,12.90
2022-10-05T17:57:37.568Z,12.90
2022-10-05T18:00:05.779Z,12.90
2022-10-05T18:02:36.317Z,12.80
2022-10-05T18:05:04.410Z,12.80
2022-10-05T18:07:31.662Z,12.80
2022-10-05T18:10:14.339Z,12.80
2022-10-05T18:12:58.960Z,12.80
2022-10-05T18:15:25.582Z,12.80
2022-10-05T18:17:57.166Z,12.90
2022-10-05T18:20:26.976Z,12.90
2022-10-05T18:23:14.307Z,13.00
2022-10-05T18:25:51.649Z,13.00
2022-10-05T18:28:31.001Z,13.10
2022-10-05T18:31:04.044Z,13.10
2022-10-05T18:33:49.281Z,13.20
2022-10-05T18:36:21.207Z,13.20
2022-10-05T18:39:06.443Z,13.10
2022-10-05T18:41:35.771Z,13.10
2022-10-05T18:44:17.588Z,13.10
2022-10-05T18:46:50.814Z,13.10
2022-10-05T18:49:29.491Z,13.10
2022-10-05T18:52:01.965Z,13.10
2022-10-05T18:54:50.883Z,13.00
2022-10-05T18:57:20.481Z,12.90
2022-10-05T18:59:50.333Z,12.90
2022-10-05T19:02:25.399Z,12.80
2022-10-05T19:05:23.793Z,12.80
2022-10-05T19:08:08.687Z,12.80
2022-10-05T19:10:45.721Z,12.80
2022-10-05T19:13:34.617Z,12.80
2022-10-05T19:16:08.309Z,12.90
2022-10-05T19:18:53.955Z,13.00
2022-10-05T19:21:40.285Z,13.00
2022-10-05T19:24:14.446Z,13.10
2022-10-05T19:26:53.739Z,13.20
2022-10-05T19:29:27.122Z,13.20
2022-10-05T19:31:55.064Z,13.20
2022-10-05T19:34:24.658Z,13.20
2022-10-05T19:37:02.319Z,13.30
2022-10-05T19:39:47.669Z,13.30
2022-10-05T19:42:14.262Z,13.30
2022-10-05T19:44:46.922Z,13.30
2022-10-05T19:47:24.688Z,13.30
2022-10-05T19:49:57.354Z,13.20
2022-10-05T19:52:28.373Z,13.20
2022-10-05T19:55:02.206Z,13.10
2022-10-05T19:57:28.913Z,13.10
2022-10-05T19:59:56.609Z,13.00
2022-10-05T20:02:25.342Z,13.00
2022-10-05T20:04:54.988Z,13.00
2022-10-05T20:07:22.869Z,12.90
2022-10-05T20:09:59.967Z,12.90
2022-10-05T20:12:45.470Z,12.80
2022-10-05T20:15:35.728Z,12.80
2022-10-05T20:18:41.225Z,12.80
2022-10-05T20:21:07.940Z,12.80
2022-10-05T20:23:35.126Z,12.90
2022-10-05T20:26:20.547Z,13.00
2022-10-05T20:28:47.700Z,13.20
2022-10-05T20:31:14.546Z,13.20
2022-10-05T20:33:42.288Z,13.40
2022-10-05T20:36:08.965Z,13.40
2022-10-05T20:38:40.799Z,13.50
2022-10-05T20:41:07.832Z,13.70
2022-10-05T20:43:35.756Z,13.70
2022-10-05T20:46:02.488Z,13.80
2022-10-05T20:48:31.334Z,13.90
2022-10-05T20:51:01.000Z,14.00
2022-10-05T20:53:27.641Z,14.00
2022-10-05T20:55:56.011Z,14.00
2022-10-05T20:58:23.849Z,14.00
2022-10-05T21:01:09.367Z,14.00
2022-10-05T21:03:35.964Z,14.00
2022-10-05T21:06:02.467Z,14.00
2022-10-05T21:08:31.615Z,14.00
2022-10-05T21:10:58.248Z,14.10
2022-10-05T21:13:25.408Z,14.20
2022-10-05T21:15:51.971Z,14.20
2022-10-05T21:18:20.165Z,14.20
2022-10-05T21:20:47.768Z,14.30
2022-10-05T21:23:14.279Z,14.40
2022-10-05T21:25:40.874Z,14.40
2022-10-05T21:28:07.702Z,14.40
2022-10-05T21:30:36.576Z,14.50
2022-10-05T21:33:03.090Z,14.50
2022-10-05T21:35:29.808Z,14.40
2022-10-05T21:37:56.331Z,14.40
2022-10-05T21:40:23.848Z,14.40
2022-10-05T21:42:53.416Z,14.40
2022-10-05T21:45:20.221Z,14.50
2022-10-05T21:47:46.894Z,14.50
2022-10-05T21:50:13.518Z,14.50
2022-10-05T21:52:40.225Z,14.40
2022-10-05T21:55:07.087Z,14.50
2022-10-05T21:57:34.634Z,14.50
2022-10-05T22:00:01.224Z,14.50
2022-10-05T22:02:27.867Z,14.50
2022-10-05T22:04:54.473Z,14.50
2022-10-05T22:07:21.016Z,14.50
2022-10-05T22:09:51.297Z,14.50
2022-10-05T22:12:19.834Z,14.50
2022-10-05T22:14:46.591Z,14.60
2022-10-05T22:17:14.463Z,14.60
2022-10-05T22:19:41.056Z,14.70
2022-10-05T22:22:11.726Z,14.70
2022-10-05T22:24:38.449Z,14.80
2022-10-05T22:27:05.061Z,14.90
2022-10-05T22:29:31.576Z,14.90
2022-10-05T22:31:58.155Z,14.90
2022-10-05T22:34:24.753Z,14.80
2022-10-05T22:36:51.370Z,14.90
2022-10-05T22:39:18.022Z,14.80
2022-10-05T22:41:44.539Z,14.90
2022-10-05T22:44:11.216Z,14.90
2022-10-05T22:46:37.733Z,14.80
2022-10-05T22:49:04.254Z,14.80
2022-10-05T22:51:30.831Z,14.70
2022-10-05T22:53:57.556Z,14.70
2022-10-05T22:56:24.135Z,14.70
2022-10-05T22:58:51.107Z,14.70
2022-10-05T23:01:18.276Z,14.70
2022-10-05T23:03:45.240Z,14.80
2022-10-05T23:06:13.136Z,14.70
2022-10-05T23:08:40.072Z,14.80
2022-10-05T23:11:07.705Z,14.80
2022-10-05T23:13:34.223Z,14.90
2022-10-05T23:16:06.736Z,14.90
2022-10-05T23:18:33.958Z,14.80
2022-10-05T23:21:00.535Z,14.70
2022-10-05T23:23:27.482Z,14.80
2022-10-05T23:25:59.150Z,14.80
2022-10-05T23:28:26.346Z,14.80
2022-10-05T23:30:57.628Z,14.80
2022-10-05T23:33:24.197Z,14.80
2022-10-05T23:35:57.301Z,14.70
2022-10-05T23:38:23.800Z,14.70
2022-10-05T23:40:50.318Z,14.60
2022-10-05T23:43:16.873Z,14.70
2022-10-05T23:45:46.833Z,14.60
2022-10-05T23:48:13.422Z,14.60
2022-10-05T23:50:40.226Z,14.60
2022-10-05T23:53:06.763Z,14.60
2022-10-05T23:55:33.283Z,14.60
2022-10-05T23:57:59.842Z,14.60
